createdAt,value
2023-05-05T00:00:19.370Z,2249.00
2023-05-05T00:01:19.428Z,2245.00
2023-05-05T00:02:19.545Z,2262.00
2023-05-05T00:03:19.568Z,2242.00
2023-05-05T00:04:19.627Z,2241.00
2023-05-05T00:05:19.618Z,2230.00
2023-05-05T00:06:19.685Z,2250.00
2023-05-05T00:07:19.728Z,2250.00
2023-05-05T00:08:19.781Z,2247.00
2023-05-05T00:09:19.841Z,2237.00
2023-05-05T00:10:20.766Z,2244.00
2023-05-05T00:11:19.952Z,2232.00
2023-05-05T00:12:20.011Z,2229.00
2023-05-05T00:13:20.056Z,2238.00
2023-05-05T00:14:20.104Z,2234.00
2023-05-05T00:15:20.159Z,2230.00
2023-05-05T00:16:20.396Z,2222.00
2023-05-05T00:17:20.293Z,2226.00
2023-05-05T00:18:20.324Z,2225.00
2023-05-05T00:19:20.384Z,2208.00
2023-05-05T00:20:20.454Z,2230.00
2023-05-05T00:21:20.498Z,2231.00
2023-05-05T00:22:20.564Z,2226.00
2023-05-05T00:23:20.641Z,2235.00
2023-05-05T00:24:20.684Z,2210.00
2023-05-05T00:25:20.745Z,2212.00
2023-05-05T00:26:20.812Z,2211.00
2023-05-05T00:27:20.874Z,2230.00
2023-05-05T00:28:21.002Z,2215.00
2023-05-05T00:29:20.996Z,2210.00
2023-05-05T00:30:21.054Z,2196.00
2023-05-05T00:31:21.154Z,2221.00
2023-05-05T00:32:21.208Z,2222.00
2023-05-05T00:33:21.222Z,2195.00
2023-05-05T00:34:21.271Z,2194.00
2023-05-05T00:35:21.322Z,2205.00
2023-05-05T00:36:21.401Z,2195.00
2023-05-05T00:37:21.423Z,2199.00
2023-05-05T00:38:21.473Z,2184.00
2023-05-05T00:39:21.567Z,2191.00
2023-05-05T00:40:21.571Z,2196.00
2023-05-05T00:41:21.626Z,2200.00
2023-05-05T00:42:21.672Z,2201.00
2023-05-05T00:43:21.752Z,2185.00
2023-05-05T00:44:21.763Z,2195.00
2023-05-05T00:45:21.816Z,2191.00
2023-05-05T00:46:21.903Z,2188.00
2023-05-05T00:47:21.911Z,2193.00
2023-05-05T00:48:21.978Z,2185.00
2023-05-05T00:49:22.114Z,2176.00
2023-05-05T00:50:22.093Z,2180.00
2023-05-05T00:51:22.166Z,2187.00
2023-05-05T00:52:22.213Z,2185.00
2023-05-05T00:53:22.270Z,2170.00
2023-05-05T00:54:22.346Z,2178.00
2023-05-05T00:55:22.387Z,2192.00
2023-05-05T00:56:22.465Z,2167.00
2023-05-05T00:57:22.517Z,2163.00
2023-05-05T00:58:22.567Z,2169.00
2023-05-05T00:59:22.633Z,2167.00
2023-05-05T01:00:22.697Z,2171.00
2023-05-05T01:01:22.747Z,2150.00
2023-05-05T01:02:22.820Z,2181.00
2023-05-05T01:03:22.920Z,2151.00
2023-05-05T01:04:22.899Z,2149.00
2023-05-05T01:05:22.951Z,2163.00
2023-05-05T01:06:22.999Z,2155.00
2023-05-05T01:07:23.044Z,2167.00
2023-05-05T01:08:23.091Z,2159.00
2023-05-05T01:09:23.152Z,2146.00
2023-05-05T01:10:23.436Z,2146.00
2023-05-05T01:11:23.269Z,2149.00
2023-05-05T01:12:23.329Z,2135.00
2023-05-05T01:13:23.406Z,2143.00
2023-05-05T01:14:23.449Z,2138.00
2023-05-05T01:15:23.520Z,2140.00
2023-05-05T01:16:23.637Z,2148.00
2023-05-05T01:17:23.669Z,2141.00
2023-05-05T01:18:23.684Z,2148.00
2023-05-05T01:19:23.760Z,2133.00
2023-05-05T01:20:23.815Z,2145.00
2023-05-05T01:21:23.875Z,2148.00
2023-05-05T01:22:23.927Z,2146.00
2023-05-05T01:23:23.981Z,2138.00
2023-05-05T01:24:24.036Z,2139.00
2023-05-05T01:25:24.106Z,2122.00
2023-05-05T01:26:24.147Z,2120.00
2023-05-05T01:27:24.197Z,2124.00
2023-05-05T01:28:24.249Z,2125.00
2023-05-05T01:29:24.312Z,2122.00
2023-05-05T01:30:24.361Z,2113.00
2023-05-05T01:31:24.431Z,2117.00
2023-05-05T01:32:24.534Z,2124.00
2023-05-05T01:33:24.537Z,2117.00
2023-05-05T01:34:24.607Z,2118.00
2023-05-05T01:35:24.641Z,2110.00
2023-05-05T01:36:24.683Z,2124.00
2023-05-05T01:37:24.735Z,2119.00
2023-05-05T01:38:24.786Z,2125.00
2023-05-05T01:39:24.831Z,2106.00
2023-05-05T01:40:24.876Z,2117.00
2023-05-05T01:41:24.932Z,2102.00
2023-05-05T01:42:24.991Z,2109.00
2023-05-05T01:43:25.020Z,2106.00
2023-05-05T01:44:25.063Z,2086.00
2023-05-05T01:45:25.126Z,2106.00
2023-05-05T01:46:25.166Z,2101.00
2023-05-05T01:47:25.242Z,2102.00
2023-05-05T01:48:25.255Z,2102.00
2023-05-05T01:49:25.320Z,2111.00
2023-05-05T01:50:25.368Z,2093.00
2023-05-05T01:51:25.418Z,2099.00
2023-05-05T01:52:25.458Z,2091.00
2023-05-05T01:53:25.513Z,2095.00
2023-05-05T01:54:25.564Z,2092.00
2023-05-05T01:55:25.617Z,2084.00
2023-05-05T01:56:25.672Z,2094.00
2023-05-05T01:57:25.715Z,2094.00
2023-05-05T01:58:25.768Z,2080.00
2023-05-05T01:59:25.815Z,2094.00
2023-05-05T02:00:25.873Z,2075.00
2023-05-05T02:01:25.949Z,2089.00
2023-05-05T02:02:26.033Z,2080.00
2023-05-05T02:03:26.058Z,2069.00
2023-05-05T02:04:26.077Z,2083.00
2023-05-05T02:05:26.134Z,2070.00
2023-05-05T02:06:26.213Z,2073.00
2023-05-05T02:07:26.267Z,2077.00
2023-05-05T02:08:26.339Z,2073.00
2023-05-05T02:09:26.362Z,2072.00
2023-05-05T02:10:26.426Z,2075.00
2023-05-05T02:11:26.477Z,2078.00
2023-05-05T02:12:26.527Z,2068.00
2023-05-05T02:13:26.631Z,2068.00
2023-05-05T02:14:26.626Z,2066.00
2023-05-05T02:15:26.679Z,2069.00
2023-05-05T02:16:26.732Z,2052.00
2023-05-05T02:17:26.807Z,2054.00
2023-05-05T02:18:26.840Z,2051.00
2023-05-05T02:19:26.887Z,2053.00
2023-05-05T02:20:26.952Z,2057.00
2023-05-05T02:21:27.004Z,2049.00
2023-05-05T02:22:27.051Z,2041.00
2023-05-05T02:23:27.103Z,2055.00
2023-05-05T02:24:27.152Z,2059.00
2023-05-05T02:25:27.203Z,2044.00
2023-05-05T02:26:27.256Z,2040.00
2023-05-05T02:27:27.304Z,2040.00
2023-05-05T02:28:27.366Z,2046.00
2023-05-05T02:29:27.412Z,2044.00
2023-05-05T02:30:27.444Z,2049.00
2023-05-05T02:31:27.601Z,2033.00
2023-05-05T02:32:27.591Z,2046.00
2023-05-05T02:33:27.595Z,2033.00
2023-05-05T02:34:27.640Z,2029.00
2023-05-05T02:35:27.689Z,2029.00
2023-05-05T02:36:27.798Z,2033.00
2023-05-05T02:37:27.801Z,2021.00
2023-05-05T02:38:27.853Z,2034.00
2023-05-05T02:39:27.909Z,2025.00
2023-05-05T02:40:27.958Z,2013.00
2023-05-05T02:41:28.007Z,2017.00
2023-05-05T02:42:28.072Z,2007.00
2023-05-05T02:43:28.125Z,2012.00
2023-05-05T02:44:28.187Z,2014.00
2023-05-05T02:45:28.256Z,2012.00
2023-05-05T02:46:28.362Z,2011.00
2023-05-05T02:47:28.365Z,2025.00
2023-05-05T02:48:28.406Z,2009.00
2023-05-05T02:49:28.445Z,1995.00
2023-05-05T02:50:28.473Z,1996.00
2023-05-05T02:51:28.518Z,2002.00
2023-05-05T02:52:28.571Z,2006.00
2023-05-05T02:53:28.625Z,2005.00
2023-05-05T02:54:28.683Z,1985.00
2023-05-05T02:55:28.745Z,1996.00
2023-05-05T02:56:28.777Z,1982.00
2023-05-05T02:57:28.827Z,1989.00
2023-05-05T02:58:28.887Z,1983.00
2023-05-05T02:59:28.947Z,1999.00
2023-05-05T03:00:29.004Z,2001.00
2023-05-05T03:01:29.116Z,1980.00
2023-05-05T03:02:29.246Z,1987.00
2023-05-05T03:03:29.272Z,2002.00
2023-05-05T03:04:29.242Z,1985.00
2023-05-05T03:05:29.256Z,1973.00
2023-05-05T03:06:29.323Z,1988.00
2023-05-05T03:07:29.374Z,1962.00
2023-05-05T03:08:29.421Z,1962.00
2023-05-05T03:09:29.490Z,1971.00
2023-05-05T03:10:29.546Z,1959.00
2023-05-05T03:11:29.597Z,1985.00
2023-05-05T03:12:29.677Z,1964.00
2023-05-05T03:13:29.686Z,1965.00
2023-05-05T03:14:32.772Z,1962.00
2023-05-05T03:15:29.745Z,1971.00
2023-05-05T03:16:29.793Z,1983.00
2023-05-05T03:17:29.762Z,1969.00
2023-05-05T03:18:29.824Z,1966.00
2023-05-05T03:19:29.780Z,1959.00
2023-05-05T03:20:29.780Z,1960.00
2023-05-05T03:21:29.792Z,1950.00
2023-05-05T03:22:29.784Z,1949.00
2023-05-05T03:23:29.796Z,1960.00
2023-05-05T03:24:29.813Z,1940.00
2023-05-05T03:25:29.812Z,1950.00
2023-05-05T03:26:29.808Z,1950.00
2023-05-05T03:27:29.829Z,1942.00
2023-05-05T03:28:29.830Z,1950.00
2023-05-05T03:29:29.822Z,1941.00
2023-05-05T03:30:29.825Z,1932.00
2023-05-05T03:31:29.867Z,1939.00
2023-05-05T03:32:29.888Z,1935.00
2023-05-05T03:33:29.851Z,1943.00
2023-05-05T03:34:29.846Z,1939.00
2023-05-05T03:35:29.871Z,1937.00
2023-05-05T03:36:29.865Z,1926.00
2023-05-05T03:37:29.870Z,1920.00
2023-05-05T03:38:29.884Z,1913.00
2023-05-05T03:39:29.882Z,1909.00
2023-05-05T03:40:42.964Z,1923.00
2023-05-05T03:41:30.907Z,1925.00
2023-05-05T03:42:29.902Z,1928.00
2023-05-05T03:43:29.911Z,1928.00
2023-05-05T03:44:29.913Z,1925.00
2023-05-05T03:45:29.985Z,1948.00
2023-05-05T03:46:29.944Z,1927.00
2023-05-05T03:47:29.970Z,1939.00
2023-05-05T03:48:29.939Z,1934.00
2023-05-05T03:49:29.948Z,1922.00
2023-05-05T03:50:29.948Z,1909.00
2023-05-05T03:51:29.957Z,1907.00
2023-05-05T03:52:29.953Z,1915.00
2023-05-05T03:53:29.993Z,1911.00
2023-05-05T03:54:30.025Z,1901.00
2023-05-05T03:55:30.077Z,1907.00
2023-05-05T03:56:30.110Z,1913.00
2023-05-05T03:57:30.159Z,1912.00
2023-05-05T03:58:30.209Z,1904.00
2023-05-05T03:59:30.263Z,1915.00
2023-05-05T04:00:30.841Z,1903.00
2023-05-05T04:01:30.353Z,1899.00
2023-05-05T04:02:30.474Z,1894.00
2023-05-05T04:03:30.745Z,1895.00
2023-05-05T04:04:30.552Z,1894.00
2023-05-05T04:05:30.535Z,1878.00
2023-05-05T04:06:30.583Z,1898.00
2023-05-05T04:07:30.624Z,1888.00
2023-05-05T04:08:30.677Z,1900.00
2023-05-05T04:09:30.723Z,1895.00
2023-05-05T04:10:30.780Z,1889.00
2023-05-05T04:11:30.823Z,1874.00
2023-05-05T04:12:30.918Z,1869.00
2023-05-05T04:13:30.926Z,1886.00
2023-05-05T04:14:30.975Z,1876.00
2023-05-05T04:15:31.015Z,1870.00
2023-05-05T04:16:31.188Z,1867.00
2023-05-05T04:17:31.112Z,1882.00
2023-05-05T04:18:31.177Z,1875.00
2023-05-05T04:19:31.223Z,1876.00
2023-05-05T04:20:31.275Z,1864.00
2023-05-05T04:21:31.324Z,1858.00
2023-05-05T04:22:31.366Z,1872.00
2023-05-05T04:23:31.425Z,1864.00
2023-05-05T04:24:31.473Z,1872.00
2023-05-05T04:25:31.549Z,1866.00
2023-05-05T04:26:31.576Z,1847.00
2023-05-05T04:27:31.610Z,1868.00
2023-05-05T04:28:31.723Z,1854.00
2023-05-05T04:29:31.710Z,1857.00
2023-05-05T04:30:31.758Z,1851.00
2023-05-05T04:31:31.834Z,1854.00
2023-05-05T04:32:31.899Z,1855.00
2023-05-05T04:33:31.898Z,1854.00
2023-05-05T04:34:31.956Z,1858.00
2023-05-05T04:35:32.012Z,1855.00
2023-05-05T04:36:32.062Z,1839.00
2023-05-05T04:37:32.118Z,1852.00
2023-05-05T04:38:32.192Z,1831.00
2023-05-05T04:39:32.221Z,1855.00
2023-05-05T04:40:32.291Z,1850.00
2023-05-05T04:41:32.325Z,1830.00
2023-05-05T04:42:32.377Z,1840.00
2023-05-05T04:43:32.432Z,1830.00
2023-05-05T04:44:32.475Z,1828.00
2023-05-05T04:45:32.529Z,1827.00
2023-05-05T04:46:32.586Z,1831.00
2023-05-05T04:47:32.637Z,1829.00
2023-05-05T04:48:32.767Z,1838.00
2023-05-05T04:49:32.801Z,1831.00
2023-05-05T04:50:32.825Z,1829.00
2023-05-05T04:51:32.867Z,1834.00
2023-05-05T04:52:32.877Z,1830.00
2023-05-05T04:53:32.919Z,1811.00
2023-05-05T04:54:32.976Z,1810.00
2023-05-05T04:55:33.037Z,1817.00
2023-05-05T04:56:33.102Z,1810.00
2023-05-05T04:57:33.153Z,1824.00
2023-05-05T04:58:33.201Z,1813.00
2023-05-05T04:59:33.253Z,1808.00
2023-05-05T05:00:33.310Z,1810.00
2023-05-05T05:01:33.462Z,1818.00
2023-05-05T05:02:33.492Z,1806.00
2023-05-05T05:03:33.595Z,1793.00
2023-05-05T05:04:33.550Z,1816.00
2023-05-05T05:05:33.605Z,1801.00
2023-05-05T05:06:33.617Z,1804.00
2023-05-05T05:07:33.676Z,1808.00
2023-05-05T05:08:33.725Z,1800.00
2023-05-05T05:09:33.768Z,1794.00
2023-05-05T05:10:33.824Z,1800.00
2023-05-05T05:11:33.884Z,1781.00
2023-05-05T05:12:33.943Z,1795.00
2023-05-05T05:13:33.954Z,1785.00
2023-05-05T05:14:34.876Z,1779.00
2023-05-05T05:15:34.045Z,1791.00
2023-05-05T05:16:34.128Z,1798.00
2023-05-05T05:17:34.169Z,1788.00
2023-05-05T05:18:34.224Z,1788.00
2023-05-05T05:19:34.263Z,1756.00
2023-05-05T05:20:34.347Z,1764.00
2023-05-05T05:21:34.366Z,1771.00
2023-05-05T05:22:34.409Z,1640.00
2023-05-05T05:23:34.456Z,1579.00
2023-05-05T05:24:34.524Z,1514.00
2023-05-05T05:25:34.584Z,1373.00
2023-05-05T05:26:34.657Z,1320.00
2023-05-05T05:27:34.731Z,1243.00
2023-05-05T05:28:34.798Z,1194.00
2023-05-05T05:29:34.880Z,1185.00
2023-05-05T05:30:34.972Z,1063.00
2023-05-05T05:31:35.843Z,971.00
2023-05-05T05:32:35.153Z,1021.00
2023-05-05T05:33:35.202Z,961.00
2023-05-05T05:34:35.287Z,1041.00
2023-05-05T05:35:35.362Z,1169.00
2023-05-05T05:36:35.428Z,1225.00
2023-05-05T05:37:35.491Z,1283.00
2023-05-05T05:38:35.571Z,1321.00
2023-05-05T05:39:35.615Z,1379.00
2023-05-05T05:40:35.663Z,1392.00
2023-05-05T05:41:35.720Z,1408.00
2023-05-05T05:42:35.862Z,1424.00
2023-05-05T05:43:35.831Z,1461.00
2023-05-05T05:44:35.861Z,1481.00
2023-05-05T05:45:35.909Z,1514.00
2023-05-05T05:46:36.040Z,1525.00
2023-05-05T05:47:36.024Z,1552.00
2023-05-05T05:48:36.034Z,1574.00
2023-05-05T05:49:36.081Z,1580.00
2023-05-05T05:50:36.115Z,1540.00
2023-05-05T05:51:36.164Z,1550.00
2023-05-05T05:52:36.193Z,1588.00
2023-05-05T05:53:36.239Z,1599.00
2023-05-05T05:54:36.270Z,1617.00
2023-05-05T05:55:36.311Z,1602.00
2023-05-05T05:56:36.347Z,1407.00
2023-05-05T05:57:36.393Z,1173.00
2023-05-05T05:58:36.457Z,919.00
2023-05-05T05:59:36.523Z,742.00
2023-05-05T06:00:36.576Z,625.00
2023-05-05T06:01:36.647Z,550.00
2023-05-05T06:02:36.790Z,563.00
2023-05-05T06:03:36.791Z,532.00
2023-05-05T06:04:36.879Z,518.00
2023-05-05T06:05:36.900Z,507.00
2023-05-05T06:06:36.943Z,530.00
2023-05-05T06:07:36.992Z,536.00
2023-05-05T06:08:37.040Z,525.00
2023-05-05T06:09:37.091Z,561.00
2023-05-05T06:10:37.143Z,596.00
2023-05-05T06:11:37.184Z,615.00
2023-05-05T06:12:37.261Z,610.00
2023-05-05T06:13:37.234Z,620.00
2023-05-05T06:14:37.274Z,642.00
2023-05-05T06:15:37.318Z,660.00
2023-05-05T06:16:37.308Z,664.00
2023-05-05T06:17:37.319Z,664.00
2023-05-05T06:18:37.338Z,698.00
2023-05-05T06:19:37.342Z,700.00
2023-05-05T06:20:37.358Z,692.00
2023-05-05T06:21:37.359Z,645.00
2023-05-05T06:22:37.390Z,576.00
2023-05-05T06:23:37.405Z,537.00
2023-05-05T06:24:37.429Z,504.00
2023-05-05T06:25:37.450Z,480.00
2023-05-05T06:26:37.457Z,500.00
2023-05-05T06:27:37.482Z,522.00
2023-05-05T06:28:37.526Z,572.00
2023-05-05T06:29:37.530Z,595.00
2023-05-05T06:30:37.544Z,595.00
2023-05-05T06:31:37.630Z,604.00
2023-05-05T06:32:37.578Z,570.00
2023-05-05T06:33:37.572Z,561.00
2023-05-05T06:34:37.593Z,576.00
2023-05-05T06:35:37.597Z,576.00
2023-05-05T06:36:37.675Z,585.00
2023-05-05T06:37:37.615Z,591.00
2023-05-05T06:38:37.628Z,621.00
2023-05-05T06:39:37.646Z,626.00
2023-05-05T06:40:37.660Z,639.00
2023-05-05T06:41:37.716Z,664.00
2023-05-05T06:42:37.649Z,686.00
2023-05-05T06:43:37.658Z,722.00
2023-05-05T06:44:37.674Z,741.00
2023-05-05T06:45:37.712Z,786.00
2023-05-05T06:46:37.838Z,850.00
2023-05-05T06:47:37.819Z,879.00
2023-05-05T06:48:37.822Z,897.00
2023-05-05T06:49:37.863Z,915.00
2023-05-05T06:50:37.918Z,951.00
2023-05-05T06:51:37.961Z,1003.00
2023-05-05T06:52:37.973Z,1007.00
2023-05-05T06:53:38.032Z,1060.00
2023-05-05T06:54:38.143Z,1081.00
2023-05-05T06:55:38.911Z,1116.00
2023-05-05T06:56:38.103Z,1135.00
2023-05-05T06:57:38.102Z,1172.00
2023-05-05T06:58:38.080Z,1174.00
2023-05-05T06:59:38.075Z,1179.00
2023-05-05T07:00:38.085Z,1175.00
2023-05-05T07:01:38.066Z,1186.00
2023-05-05T07:02:38.091Z,1214.00
2023-05-05T07:03:38.074Z,1252.00
2023-05-05T07:04:38.079Z,1317.00
2023-05-05T07:05:38.051Z,1333.00
2023-05-05T07:06:38.047Z,1400.00
2023-05-05T07:07:38.043Z,1548.00
2023-05-05T07:08:38.023Z,1533.00
2023-05-05T07:09:38.015Z,1517.00
2023-05-05T07:10:38.145Z,1524.00
2023-05-05T07:11:38.109Z,1515.00
2023-05-05T07:12:38.160Z,1523.00
2023-05-05T07:13:38.159Z,1524.00
2023-05-05T07:14:38.134Z,1526.00
2023-05-05T07:15:38.136Z,1532.00
2023-05-05T07:16:38.165Z,1554.00
2023-05-05T07:17:38.989Z,1599.00
2023-05-05T07:18:38.126Z,1598.00
2023-05-05T07:19:38.144Z,1668.00
2023-05-05T07:20:38.105Z,1710.00
2023-05-05T07:21:38.100Z,1738.00
2023-05-05T07:22:38.082Z,1635.00
2023-05-05T07:23:38.082Z,1688.00
2023-05-05T07:24:38.082Z,1712.00
2023-05-05T07:25:38.129Z,1710.00
2023-05-05T07:26:38.312Z,1726.00
2023-05-05T07:27:38.211Z,1760.00
2023-05-05T07:28:38.278Z,1774.00
2023-05-05T07:29:38.352Z,1803.00
2023-05-05T07:30:38.376Z,1814.00
2023-05-05T07:31:38.464Z,1788.00
2023-05-05T07:32:38.505Z,1788.00
2023-05-05T07:33:38.495Z,1791.00
2023-05-05T07:34:39.474Z,1791.00
2023-05-05T07:35:38.473Z,1798.00
2023-05-05T07:36:38.514Z,1828.00
2023-05-05T07:37:38.468Z,1866.00
2023-05-05T07:38:38.455Z,1941.00
2023-05-05T07:39:38.430Z,1794.00
2023-05-05T07:40:38.413Z,1815.00
2023-05-05T07:41:38.412Z,1796.00
2023-05-05T07:42:38.522Z,1825.00
2023-05-05T07:43:39.384Z,1862.00
2023-05-05T07:44:38.366Z,1931.00
2023-05-05T07:45:38.361Z,2084.00
2023-05-05T07:46:38.391Z,2118.00
2023-05-05T07:47:38.419Z,2120.00
2023-05-05T07:48:38.361Z,2124.00
2023-05-05T07:49:38.346Z,2141.00
2023-05-05T07:50:38.336Z,2163.00
2023-05-05T07:51:38.338Z,2152.00
2023-05-05T07:52:48.256Z,2155.00
2023-05-05T07:53:38.328Z,2158.00
2023-05-05T07:54:38.315Z,2166.00
2023-05-05T07:55:38.361Z,2192.00
2023-05-05T07:56:38.291Z,2223.00
2023-05-05T07:57:38.281Z,2283.00
2023-05-05T07:58:38.325Z,2276.00
2023-05-05T07:59:38.270Z,2218.00
2023-05-05T08:00:38.242Z,2260.00
2023-05-05T08:01:38.241Z,2272.00
2023-05-05T08:02:38.336Z,2265.00
2023-05-05T08:03:38.575Z,2243.00
2023-05-05T08:04:38.400Z,2275.00
2023-05-05T08:05:38.941Z,2347.00
2023-05-05T08:06:38.444Z,2416.00
2023-05-05T08:07:38.531Z,2427.00
2023-05-05T08:08:38.566Z,2453.00
2023-05-05T08:09:38.647Z,2415.00
2023-05-05T08:10:38.681Z,2407.00
2023-05-05T08:11:39.461Z,2434.00
2023-05-05T08:12:38.821Z,2337.00
2023-05-05T08:13:38.873Z,2341.00
2023-05-05T08:14:39.005Z,2345.00
2023-05-05T08:15:39.045Z,2403.00
2023-05-05T08:16:39.034Z,2243.00
2023-05-05T08:17:39.167Z,2095.00
2023-05-05T08:18:39.158Z,1957.00
2023-05-05T08:19:39.224Z,1790.00
2023-05-05T08:20:39.285Z,1743.00
2023-05-05T08:21:39.341Z,1790.00
2023-05-05T08:22:39.405Z,1791.00
2023-05-05T08:23:39.457Z,1739.00
2023-05-05T08:24:39.534Z,1713.00
2023-05-05T08:25:39.569Z,1785.00
2023-05-05T08:26:39.612Z,1844.00
2023-05-05T08:27:39.654Z,1781.00
2023-05-05T08:28:39.723Z,1795.00
2023-05-05T08:29:39.758Z,1872.00
2023-05-05T08:30:39.910Z,1923.00
2023-05-05T08:31:40.016Z,1900.00
2023-05-05T08:32:39.945Z,1896.00
2023-05-05T08:33:39.958Z,1998.00
2023-05-05T08:34:40.006Z,2058.00
2023-05-05T08:35:40.052Z,2009.00
2023-05-05T08:36:40.088Z,2022.00
2023-05-05T08:37:40.153Z,2005.00
2023-05-05T08:38:40.202Z,2070.00
2023-05-05T08:39:40.226Z,2107.00
2023-05-05T08:40:40.273Z,1965.00
2023-05-05T08:41:40.300Z,2024.00
2023-05-05T08:42:40.393Z,1930.00
2023-05-05T08:43:40.370Z,1950.00
2023-05-05T08:44:40.420Z,1869.00
2023-05-05T08:45:41.371Z,1977.00
2023-05-05T08:46:41.538Z,1981.00
2023-05-05T08:47:40.474Z,1993.00
2023-05-05T08:48:40.406Z,2000.00
2023-05-05T08:49:40.381Z,2062.00
2023-05-05T08:50:40.370Z,2119.00
2023-05-05T08:51:40.366Z,2171.00
2023-05-05T08:52:40.432Z,2193.00
2023-05-05T08:53:40.332Z,2230.00
2023-05-05T08:54:40.319Z,2257.00
2023-05-05T08:55:40.293Z,2307.00
2023-05-05T08:56:40.278Z,2417.00
2023-05-05T08:57:40.942Z,2417.00
2023-05-05T08:58:40.254Z,2403.00
2023-05-05T08:59:40.229Z,2338.00
2023-05-05T09:00:40.256Z,2267.00
2023-05-05T09:01:40.190Z,2237.00
2023-05-05T09:02:40.292Z,2298.00
2023-05-05T09:03:40.142Z,2264.00
2023-05-05T09:04:40.132Z,2372.00
2023-05-05T09:05:40.101Z,2408.00
2023-05-05T09:06:40.083Z,2384.00
2023-05-05T09:07:40.062Z,2468.00
2023-05-05T09:08:40.060Z,2509.00
2023-05-05T09:09:40.049Z,2472.00
2023-05-05T09:10:40.033Z,2515.00
2023-05-05T09:11:39.992Z,2565.00
2023-05-05T09:12:40.011Z,2672.00
2023-05-05T09:13:40.018Z,2683.00
2023-05-05T09:14:40.015Z,2672.00
2023-05-05T09:15:40.045Z,2609.00
2023-05-05T09:16:40.233Z,2665.00
2023-05-05T09:17:40.105Z,2557.00
2023-05-05T09:18:40.164Z,2614.00
2023-05-05T09:19:40.469Z,2675.00
2023-05-05T09:20:41.102Z,2677.00
2023-05-05T09:21:40.083Z,2680.00
2023-05-05T09:22:40.059Z,2700.00
2023-05-05T09:23:40.175Z,2733.00
2023-05-05T09:24:40.018Z,2782.00
2023-05-05T09:25:40.004Z,2811.00
2023-05-05T09:26:40.049Z,2861.00
2023-05-05T09:27:40.100Z,2880.00
2023-05-05T09:28:40.898Z,2881.00
2023-05-05T09:29:40.042Z,2885.00
2023-05-05T09:30:40.051Z,2893.00
2023-05-05T09:31:40.016Z,2924.00
2023-05-05T09:32:40.123Z,2969.00
2023-05-05T09:33:39.997Z,2965.00
2023-05-05T09:34:40.062Z,2976.00
2023-05-05T09:35:39.991Z,2977.00
2023-05-05T09:36:39.984Z,3004.00
2023-05-05T09:37:39.980Z,3009.00
2023-05-05T09:38:39.996Z,3019.00
2023-05-05T09:39:40.033Z,3016.00
2023-05-05T09:40:40.076Z,3011.00
2023-05-05T09:41:40.139Z,3018.00
2023-05-05T09:42:40.192Z,3015.00
2023-05-05T09:43:40.236Z,3025.00
2023-05-05T09:44:40.280Z,3029.00
2023-05-05T09:45:40.364Z,3021.00
2023-05-05T09:46:40.399Z,3022.00
2023-05-05T09:47:40.497Z,3018.00
2023-05-05T09:48:40.505Z,3017.00
2023-05-05T09:49:40.566Z,3036.00
2023-05-05T09:50:41.397Z,3021.00
2023-05-05T09:51:40.676Z,3023.00
2023-05-05T09:52:40.764Z,3040.00
2023-05-05T09:53:40.831Z,3018.00
2023-05-05T09:54:40.869Z,3025.00
2023-05-05T09:55:40.944Z,3018.00
2023-05-05T09:56:41.037Z,3030.00
2023-05-05T09:57:41.078Z,3033.00
2023-05-05T09:58:41.131Z,3031.00
2023-05-05T09:59:42.410Z,3022.00
2023-05-05T10:00:41.212Z,3019.00
2023-05-05T10:01:41.347Z,3026.00
2023-05-05T10:02:41.311Z,3012.00
2023-05-05T10:03:41.331Z,3010.00
2023-05-05T10:04:41.387Z,3017.00
2023-05-05T10:05:41.408Z,3002.00
2023-05-05T10:06:41.513Z,3010.00
2023-05-05T10:07:41.529Z,3008.00
2023-05-05T10:08:41.553Z,3013.00
2023-05-05T10:09:41.637Z,3002.00
2023-05-05T10:10:41.704Z,2996.00
2023-05-05T10:11:41.758Z,2999.00
2023-05-05T10:12:42.529Z,2990.00
2023-05-05T10:13:41.988Z,2998.00
2023-05-05T10:14:41.944Z,3031.00
2023-05-05T10:15:42.106Z,3001.00
2023-05-05T10:16:42.120Z,2796.00
2023-05-05T10:17:47.871Z,2498.00
2023-05-05T10:18:43.129Z,2300.00
2023-05-05T10:19:42.096Z,1702.00
2023-05-05T10:20:42.099Z,1206.00
2023-05-05T10:21:43.402Z,994.00
2023-05-05T10:22:42.203Z,1046.00
2023-05-05T10:23:42.081Z,876.00
2023-05-05T10:24:42.074Z,770.00
2023-05-05T10:25:42.038Z,731.00
2023-05-05T10:26:42.029Z,637.00
2023-05-05T10:27:42.019Z,666.00
2023-05-05T10:28:42.003Z,562.00
2023-05-05T10:29:41.984Z,576.00
2023-05-05T10:30:41.970Z,585.00
2023-05-05T10:31:42.048Z,573.00
2023-05-05T10:33:42.077Z,563.00
2023-05-05T10:34:42.035Z,539.00
2023-05-05T10:35:41.994Z,525.00
2023-05-05T10:36:41.967Z,505.00
2023-05-05T10:37:41.963Z,491.00
2023-05-05T10:38:42.012Z,520.00
2023-05-05T10:39:41.982Z,515.00
2023-05-05T10:40:41.919Z,501.00
2023-05-05T10:41:41.915Z,538.00
2023-05-05T10:42:41.910Z,519.00
2023-05-05T10:43:41.896Z,535.00
2023-05-05T10:44:41.873Z,559.00
2023-05-05T10:45:41.969Z,457.00
2023-05-05T10:46:41.921Z,508.00
2023-05-05T10:47:41.891Z,505.00
2023-05-05T10:48:41.877Z,498.00
2023-05-05T10:49:41.825Z,526.00
2023-05-05T10:50:41.814Z,553.00
2023-05-05T10:51:41.804Z,614.00
2023-05-05T10:52:41.789Z,595.00
2023-05-05T10:53:41.776Z,541.00
2023-05-05T10:54:41.865Z,521.00
2023-05-05T10:55:41.743Z,527.00
2023-05-05T10:56:41.718Z,470.00
2023-05-05T10:57:41.748Z,504.00
2023-05-05T10:58:58.388Z,520.00
2023-05-05T10:59:42.702Z,521.00
2023-05-05T11:00:41.685Z,533.00
2023-05-05T11:01:41.651Z,523.00
2023-05-05T11:02:41.739Z,533.00
2023-05-05T11:03:41.668Z,533.00
2023-05-05T11:04:41.606Z,450.00
2023-05-05T11:05:41.595Z,417.00
2023-05-05T11:06:41.584Z,470.00
2023-05-05T11:07:41.562Z,532.00
2023-05-05T11:08:41.550Z,574.00
2023-05-05T11:09:41.597Z,570.00
2023-05-05T11:10:41.652Z,596.00
2023-05-05T11:11:41.507Z,624.00
2023-05-05T11:12:41.500Z,634.00
2023-05-05T11:13:41.483Z,676.00
2023-05-05T11:14:41.486Z,715.00
2023-05-05T11:15:41.487Z,726.00
2023-05-05T11:16:41.485Z,784.00
2023-05-05T11:17:41.492Z,780.00
2023-05-05T11:18:41.440Z,798.00
2023-05-05T11:19:41.421Z,823.00
2023-05-05T11:20:41.451Z,853.00
2023-05-05T11:21:41.481Z,895.00
2023-05-05T11:22:41.515Z,957.00
2023-05-05T11:23:41.556Z,993.00
2023-05-05T11:24:41.590Z,1008.00
2023-05-05T11:25:41.627Z,1014.00
2023-05-05T11:26:41.718Z,1089.00
2023-05-05T11:27:41.693Z,1071.00
2023-05-05T11:28:41.725Z,1148.00
2023-05-05T11:29:41.765Z,1190.00
2023-05-05T11:30:41.842Z,1200.00
2023-05-05T11:31:41.890Z,1185.00
2023-05-05T11:32:41.928Z,1197.00
2023-05-05T11:33:41.931Z,1260.00
2023-05-05T11:34:41.984Z,1316.00
2023-05-05T11:35:42.018Z,1357.00
2023-05-05T11:36:42.082Z,1377.00
2023-05-05T11:37:42.117Z,1418.00
2023-05-05T11:38:42.166Z,1403.00
2023-05-05T11:39:42.226Z,1463.00
2023-05-05T11:40:42.247Z,1456.00
2023-05-05T11:41:42.309Z,1491.00
2023-05-05T11:42:42.348Z,1504.00
2023-05-05T11:43:42.389Z,1518.00
2023-05-05T11:44:42.439Z,1495.00
2023-05-05T11:45:42.475Z,1508.00
2023-05-05T11:46:42.539Z,1553.00
2023-05-05T11:47:42.737Z,1566.00
2023-05-05T11:48:42.629Z,1616.00
2023-05-05T11:49:42.714Z,1622.00
2023-05-05T11:50:42.716Z,1611.00
2023-05-05T11:51:42.770Z,1666.00
2023-05-05T11:52:42.819Z,1660.00
2023-05-05T11:53:42.887Z,1677.00
2023-05-05T11:54:42.937Z,1717.00
2023-05-05T11:55:42.974Z,1717.00
2023-05-05T11:56:43.027Z,1732.00
2023-05-05T11:57:43.076Z,1722.00
2023-05-05T11:58:43.230Z,1729.00
2023-05-05T11:59:43.161Z,1741.00
2023-05-05T12:00:43.219Z,1783.00
2023-05-05T12:01:43.266Z,1732.00
2023-05-05T12:02:43.390Z,1780.00
2023-05-05T12:03:43.553Z,1778.00
2023-05-05T12:04:43.443Z,1796.00
2023-05-05T12:05:43.478Z,1802.00
2023-05-05T12:06:43.518Z,1833.00
2023-05-05T12:07:43.573Z,1813.00
2023-05-05T12:08:43.627Z,1857.00
2023-05-05T12:09:43.670Z,1872.00
2023-05-05T12:10:43.715Z,1874.00